sensor_id;sensor_type;location;lat;lon;timestamp;P1;durP1;ratioP1;P2;durP2;ratioP2
71975;SDS011;68326;52.124;5.424;2023-08-21T00:00:41;4.30;;;1.20;;
71975;SDS011;68326;52.124;5.424;2023-08-21T00:03:08;3.45;;;1.40;;
71975;SDS011;68326;52.124;5.424;2023-08-21T00:05:34;3.50;;;1.70;;
71975;SDS011;68326;52.124;5.424;2023-08-21T00:08:01;4.25;;;1.73;;
71975;SDS011;68326;52.124;5.424;2023-08-21T00:10:29;6.00;;;1.83;;
71975;SDS011;68326;52.124;5.424;2023-08-21T00:12:57;8.07;;;1.40;;
71975;SDS011;68326;52.124;5.424;2023-08-21T00:15:23;6.15;;;1.45;;
71975;SDS011;68326;52.124;5.424;2023-08-21T00:17:50;3.05;;;1.33;;
71975;SDS011;68326;52.124;5.424;2023-08-21T00:20:17;5.00;;;1.65;;
71975;SDS011;68326;52.124;5.424;2023-08-21T00:22:43;3.95;;;1.45;;
71975;SDS011;68326;52.124;5.424;2023-08-21T00:25:10;3.97;;;1.77;;
71975;SDS011;68326;52.124;5.424;2023-08-21T00:27:36;3.58;;;1.73;;
71975;SDS011;68326;52.124;5.424;2023-08-21T00:30:03;4.22;;;1.65;;
71975;SDS011;68326;52.124;5.424;2023-08-21T00:32:30;3.05;;;1.50;;
71975;SDS011;68326;52.124;5.424;2023-08-21T00:34:57;4.90;;;1.40;;
71975;SDS011;68326;52.124;5.424;2023-08-21T00:37:23;2.07;;;1.53;;
71975;SDS011;68326;52.124;5.424;2023-08-21T00:39:50;3.13;;;1.58;;
71975;SDS011;68326;52.124;5.424;2023-08-21T00:42:16;5.00;;;1.80;;
71975;SDS011;68326;52.124;5.424;2023-08-21T00:44:43;5.15;;;1.77;;
71975;SDS011;68326;52.124;5.424;2023-08-21T00:47:10;3.75;;;1.80;;
71975;SDS011;68326;52.124;5.424;2023-08-21T00:49:36;5.30;;;1.50;;
71975;SDS011;68326;52.124;5.424;2023-08-21T00:52:06;3.45;;;1.52;;
71975;SDS011;68326;52.124;5.424;2023-08-21T00:54:35;6.57;;;1.42;;
71975;SDS011;68326;52.124;5.424;2023-08-21T00:57:01;3.42;;;1.30;;
71975;SDS011;68326;52.124;5.424;2023-08-21T00:59:29;3.63;;;1.20;;
71975;SDS011;68326;52.124;5.424;2023-08-21T01:01:56;3.63;;;1.40;;
71975;SDS011;68326;52.124;5.424;2023-08-21T01:04:23;7.20;;;1.60;;
71975;SDS011;68326;52.124;5.424;2023-08-21T01:06:49;4.57;;;1.50;;
71975;SDS011;68326;52.124;5.424;2023-08-21T01:14:59;4.03;;;2.10;;
71975;SDS011;68326;52.124;5.424;2023-08-21T01:17:36;3.25;;;1.40;;
71975;SDS011;68326;52.124;5.424;2023-08-21T01:20:05;2.15;;;1.08;;
71975;SDS011;68326;52.124;5.424;2023-08-21T01:22:38;2.25;;;1.30;;
71975;SDS011;68326;52.124;5.424;2023-08-21T01:25:07;3.13;;;1.60;;
71975;SDS011;68326;52.124;5.424;2023-08-21T01:27:37;3.97;;;1.60;;
71975;SDS011;68326;52.124;5.424;2023-08-21T01:30:08;6.07;;;1.77;;
71975;SDS011;68326;52.124;5.424;2023-08-21T01:35:05;3.65;;;1.40;;
71975;SDS011;68326;52.124;5.424;2023-08-21T01:37:34;6.10;;;1.77;;
71975;SDS011;68326;52.124;5.424;2023-08-21T01:40:01;3.80;;;1.50;;
71975;SDS011;68326;52.124;5.424;2023-08-21T01:42:28;4.15;;;1.50;;
71975;SDS011;68326;52.124;5.424;2023-08-21T01:44:55;4.15;;;1.95;;
71975;SDS011;68326;52.124;5.424;2023-08-21T01:47:21;2.40;;;1.40;;
71975;SDS011;68326;52.124;5.424;2023-08-21T01:49:48;2.25;;;1.40;;
71975;SDS011;68326;52.124;5.424;2023-08-21T01:52:18;4.77;;;1.57;;
71975;SDS011;68326;52.124;5.424;2023-08-21T01:54:45;3.42;;;1.33;;
71975;SDS011;68326;52.124;5.424;2023-08-21T01:57:14;2.67;;;1.42;;
71975;SDS011;68326;52.124;5.424;2023-08-21T01:59:40;3.42;;;1.50;;
71975;SDS011;68326;52.124;5.424;2023-08-21T02:02:07;5.38;;;1.48;;
71975;SDS011;68326;52.124;5.424;2023-08-21T02:04:33;3.03;;;1.60;;
71975;SDS011;68326;52.124;5.424;2023-08-21T02:07:00;4.53;;;1.70;;
71975;SDS011;68326;52.124;5.424;2023-08-21T02:09:27;5.70;;;1.58;;
71975;SDS011;68326;52.124;5.424;2023-08-21T02:11:53;3.22;;;1.67;;
71975;SDS011;68326;52.124;5.424;2023-08-21T02:14:20;3.30;;;1.10;;
71975;SDS011;68326;52.124;5.424;2023-08-21T02:16:46;4.23;;;1.33;;
71975;SDS011;68326;52.124;5.424;2023-08-21T02:19:13;3.30;;;1.45;;
71975;SDS011;68326;52.124;5.424;2023-08-21T02:21:39;2.88;;;1.35;;
71975;SDS011;68326;52.124;5.424;2023-08-21T02:24:06;3.45;;;1.50;;
71975;SDS011;68326;52.124;5.424;2023-08-21T02:26:32;4.63;;;1.40;;
71975;SDS011;68326;52.124;5.424;2023-08-21T02:28:59;2.50;;;1.40;;
71975;SDS011;68326;52.124;5.424;2023-08-21T02:31:25;4.63;;;1.17;;
71975;SDS011;68326;52.124;5.424;2023-08-21T02:33:52;3.60;;;1.50;;
71975;SDS011;68326;52.124;5.424;2023-08-21T02:36:19;3.70;;;1.17;;
71975;SDS011;68326;52.124;5.424;2023-08-21T02:38:45;2.90;;;1.20;;
71975;SDS011;68326;52.124;5.424;2023-08-21T02:41:12;5.50;;;1.33;;
71975;SDS011;68326;52.124;5.424;2023-08-21T02:43:41;3.95;;;1.05;;
71975;SDS011;68326;52.124;5.424;2023-08-21T02:46:08;4.95;;;1.42;;
71975;SDS011;68326;52.124;5.424;2023-08-21T02:48:35;5.35;;;1.42;;
71975;SDS011;68326;52.124;5.424;2023-08-21T02:51:01;5.43;;;1.77;;
71975;SDS011;68326;52.124;5.424;2023-08-21T02:53:31;4.73;;;1.50;;
71975;SDS011;68326;52.124;5.424;2023-08-21T02:55:57;3.92;;;1.38;;
71975;SDS011;68326;52.124;5.424;2023-08-21T02:58:24;3.30;;;1.60;;
71975;SDS011;68326;52.124;5.424;2023-08-21T03:00:51;2.63;;;1.13;;
71975;SDS011;68326;52.124;5.424;2023-08-21T03:03:17;4.90;;;1.45;;
71975;SDS011;68326;52.124;5.424;2023-08-21T03:05:44;2.27;;;1.10;;
71975;SDS011;68326;52.124;5.424;2023-08-21T03:08:11;3.92;;;1.50;;
71975;SDS011;68326;52.124;5.424;2023-08-21T03:10:37;4.15;;;1.40;;
71975;SDS011;68326;52.124;5.424;2023-08-21T03:13:04;3.03;;;1.27;;
71975;SDS011;68326;52.124;5.424;2023-08-21T03:15:30;4.22;;;1.13;;
71975;SDS011;68326;52.124;5.424;2023-08-21T03:17:57;2.73;;;1.20;;
71975;SDS011;68326;52.124;5.424;2023-08-21T03:20:23;3.47;;;1.10;;
71975;SDS011;68326;52.124;5.424;2023-08-21T03:22:50;3.13;;;1.48;;
71975;SDS011;68326;52.124;5.424;2023-08-21T03:25:16;3.17;;;1.20;;
71975;SDS011;68326;52.124;5.424;2023-08-21T03:27:43;2.83;;;1.30;;
71975;SDS011;68326;52.124;5.424;2023-08-21T03:30:15;1.90;;;1.00;;
71975;SDS011;68326;52.124;5.424;2023-08-21T03:32:42;2.78;;;1.25;;
71975;SDS011;68326;52.124;5.424;2023-08-21T03:35:09;4.32;;;1.20;;
71975;SDS011;68326;52.124;5.424;2023-08-21T03:37:36;4.32;;;1.38;;
71975;SDS011;68326;52.124;5.424;2023-08-21T03:40:03;3.42;;;1.40;;
71975;SDS011;68326;52.124;5.424;2023-08-21T03:42:30;2.53;;;1.00;;
71975;SDS011;68326;52.124;5.424;2023-08-21T03:44:56;4.28;;;0.95;;
71975;SDS011;68326;52.124;5.424;2023-08-21T03:47:23;2.97;;;1.25;;
71975;SDS011;68326;52.124;5.424;2023-08-21T03:49:49;3.85;;;1.52;;
71975;SDS011;68326;52.124;5.424;2023-08-21T03:52:16;4.63;;;1.40;;
71975;SDS011;68326;52.124;5.424;2023-08-21T03:54:42;4.43;;;1.40;;
71975;SDS011;68326;52.124;5.424;2023-08-21T03:57:09;5.20;;;1.40;;
71975;SDS011;68326;52.124;5.424;2023-08-21T03:59:35;6.50;;;1.52;;
71975;SDS011;68326;52.124;5.424;2023-08-21T04:02:02;4.55;;;1.30;;
71975;SDS011;68326;52.124;5.424;2023-08-21T04:04:28;4.15;;;1.33;;
71975;SDS011;68326;52.124;5.424;2023-08-21T04:06:55;4.33;;;1.33;;
71975;SDS011;68326;52.124;5.424;2023-08-21T04:09:21;2.83;;;1.30;;
71975;SDS011;68326;52.124;5.424;2023-08-21T04:11:48;4.25;;;1.60;;
71975;SDS011;68326;52.124;5.424;2023-08-21T04:14:14;3.80;;;1.48;;
71975;SDS011;68326;52.124;5.424;2023-08-21T04:16:41;3.70;;;1.40;;
71975;SDS011;68326;52.124;5.424;2023-08-21T04:19:07;3.17;;;1.30;;
71975;SDS011;68326;52.124;5.424;2023-08-21T04:21:34;5.72;;;1.40;;
71975;SDS011;68326;52.124;5.424;2023-08-21T04:24:01;4.32;;;1.38;;
71975;SDS011;68326;52.124;5.424;2023-08-21T04:26:27;2.95;;;1.42;;
71975;SDS011;68326;52.124;5.424;2023-08-21T04:28:54;2.80;;;1.20;;
71975;SDS011;68326;52.124;5.424;2023-08-21T04:31:20;4.17;;;1.20;;
71975;SDS011;68326;52.124;5.424;2023-08-21T04:33:47;3.67;;;1.17;;
71975;SDS011;68326;52.124;5.424;2023-08-21T04:36:14;2.97;;;1.25;;
71975;SDS011;68326;52.124;5.424;2023-08-21T04:38:42;4.28;;;1.23;;
71975;SDS011;68326;52.124;5.424;2023-08-21T04:41:09;2.20;;;1.20;;
71975;SDS011;68326;52.124;5.424;2023-08-21T04:43:36;7.47;;;1.27;;
71975;SDS011;68326;52.124;5.424;2023-08-21T04:46:03;4.38;;;1.30;;
71975;SDS011;68326;52.124;5.424;2023-08-21T04:48:30;5.25;;;1.40;;
71975;SDS011;68326;52.124;5.424;2023-08-21T04:50:57;1.70;;;1.10;;
71975;SDS011;68326;52.124;5.424;2023-08-21T04:53:23;3.17;;;1.10;;
71975;SDS011;68326;52.124;5.424;2023-08-21T04:55:50;2.53;;;1.03;;
71975;SDS011;68326;52.124;5.424;2023-08-21T04:58:16;2.42;;;1.40;;
71975;SDS011;68326;52.124;5.424;2023-08-21T05:00:46;4.63;;;1.20;;
71975;SDS011;68326;52.124;5.424;2023-08-21T05:03:13;2.38;;;0.90;;
71975;SDS011;68326;52.124;5.424;2023-08-21T05:05:39;2.92;;;0.95;;
71975;SDS011;68326;52.124;5.424;2023-08-21T05:08:06;2.33;;;1.23;;
71975;SDS011;68326;52.124;5.424;2023-08-21T05:10:33;2.38;;;1.30;;
71975;SDS011;68326;52.124;5.424;2023-08-21T05:12:59;3.20;;;1.33;;
71975;SDS011;68326;52.124;5.424;2023-08-21T05:15:26;4.30;;;1.38;;
71975;SDS011;68326;52.124;5.424;2023-08-21T05:17:52;2.58;;;1.30;;
71975;SDS011;68326;52.124;5.424;2023-08-21T05:20:19;5.40;;;1.70;;
71975;SDS011;68326;52.124;5.424;2023-08-21T05:22:45;3.15;;;1.40;;
71975;SDS011;68326;52.124;5.424;2023-08-21T05:25:12;4.80;;;1.27;;
71975;SDS011;68326;52.124;5.424;2023-08-21T05:27:39;2.55;;;1.40;;
71975;SDS011;68326;52.124;5.424;2023-08-21T05:30:05;2.90;;;1.60;;
71975;SDS011;68326;52.124;5.424;2023-08-21T05:32:32;3.30;;;1.40;;
71975;SDS011;68326;52.124;5.424;2023-08-21T05:34:59;5.50;;;1.40;;
71975;SDS011;68326;52.124;5.424;2023-08-21T05:37:26;2.85;;;1.23;;
71975;SDS011;68326;52.124;5.424;2023-08-21T05:39:53;3.30;;;1.33;;
71975;SDS011;68326;52.124;5.424;2023-08-21T05:42:20;3.38;;;1.20;;
71975;SDS011;68326;52.124;5.424;2023-08-21T05:44:46;1.67;;;0.90;;
71975;SDS011;68326;52.124;5.424;2023-08-21T05:47:13;5.10;;;1.38;;
71975;SDS011;68326;52.124;5.424;2023-08-21T05:49:39;4.32;;;1.40;;
71975;SDS011;68326;52.124;5.424;2023-08-21T05:52:06;3.33;;;1.30;;
71975;SDS011;68326;52.124;5.424;2023-08-21T05:54:32;3.90;;;1.60;;
71975;SDS011;68326;52.124;5.424;2023-08-21T05:56:59;5.10;;;1.63;;
71975;SDS011;68326;52.124;5.424;2023-08-21T05:59:26;3.33;;;1.90;;
71975;SDS011;68326;52.124;5.424;2023-08-21T06:01:56;5.28;;;2.30;;
71975;SDS011;68326;52.124;5.424;2023-08-21T06:04:23;4.30;;;2.50;;
71975;SDS011;68326;52.124;5.424;2023-08-21T06:06:50;5.65;;;2.70;;
71975;SDS011;68326;52.124;5.424;2023-08-21T06:09:17;4.90;;;2.77;;
71975;SDS011;68326;52.124;5.424;2023-08-21T06:11:43;5.60;;;2.80;;
71975;SDS011;68326;52.124;5.424;2023-08-21T06:14:10;6.53;;;2.78;;
71975;SDS011;68326;52.124;5.424;2023-08-21T06:16:37;6.40;;;2.75;;
71975;SDS011;68326;52.124;5.424;2023-08-21T06:19:03;4.93;;;2.20;;
71975;SDS011;68326;52.124;5.424;2023-08-21T06:21:30;4.83;;;1.77;;
71975;SDS011;68326;52.124;5.424;2023-08-21T06:23:56;2.78;;;1.90;;
71975;SDS011;68326;52.124;5.424;2023-08-21T06:26:23;4.05;;;2.20;;
71975;SDS011;68326;52.124;5.424;2023-08-21T06:28:50;4.72;;;2.95;;
71975;SDS011;68326;52.124;5.424;2023-08-21T06:31:17;8.75;;;2.40;;
71975;SDS011;68326;52.124;5.424;2023-08-21T06:33:44;3.93;;;2.20;;
71975;SDS011;68326;52.124;5.424;2023-08-21T06:36:10;6.20;;;2.22;;
71975;SDS011;68326;52.124;5.424;2023-08-21T06:38:37;4.85;;;2.33;;
71975;SDS011;68326;52.124;5.424;2023-08-21T06:41:04;3.75;;;1.88;;
71975;SDS011;68326;52.124;5.424;2023-08-21T06:43:37;2.97;;;2.10;;
71975;SDS011;68326;52.124;5.424;2023-08-21T06:46:07;4.30;;;2.10;;
71975;SDS011;68326;52.124;5.424;2023-08-21T06:48:34;3.75;;;2.28;;
71975;SDS011;68326;52.124;5.424;2023-08-21T06:51:04;6.55;;;2.20;;
71975;SDS011;68326;52.124;5.424;2023-08-21T06:53:30;6.68;;;2.72;;
71975;SDS011;68326;52.124;5.424;2023-08-21T06:55:57;4.45;;;2.70;;
71975;SDS011;68326;52.124;5.424;2023-08-21T06:58:24;6.40;;;2.80;;
71975;SDS011;68326;52.124;5.424;2023-08-21T07:00:53;5.10;;;2.95;;
71975;SDS011;68326;52.124;5.424;2023-08-21T07:03:20;7.20;;;2.47;;
71975;SDS011;68326;52.124;5.424;2023-08-21T07:05:46;4.07;;;2.03;;
71975;SDS011;68326;52.124;5.424;2023-08-21T07:08:21;5.18;;;2.85;;
71975;SDS011;68326;52.124;5.424;2023-08-21T07:10:48;5.60;;;3.00;;
71975;SDS011;68326;52.124;5.424;2023-08-21T07:13:15;5.90;;;2.58;;
71975;SDS011;68326;52.124;5.424;2023-08-21T07:15:42;5.03;;;2.58;;
71975;SDS011;68326;52.124;5.424;2023-08-21T07:18:08;5.05;;;2.42;;
71975;SDS011;68326;52.124;5.424;2023-08-21T07:20:35;6.95;;;2.90;;
71975;SDS011;68326;52.124;5.424;2023-08-21T07:23:02;6.07;;;2.50;;
71975;SDS011;68326;52.124;5.424;2023-08-21T07:25:29;6.18;;;2.30;;
71975;SDS011;68326;52.124;5.424;2023-08-21T07:27:56;7.22;;;2.58;;
71975;SDS011;68326;52.124;5.424;2023-08-21T07:30:23;5.10;;;2.67;;
71975;SDS011;68326;52.124;5.424;2023-08-21T07:32:49;4.13;;;2.22;;
71975;SDS011;68326;52.124;5.424;2023-08-21T07:35:16;34.43;;;3.57;;
71975;SDS011;68326;52.124;5.424;2023-08-21T07:37:43;6.57;;;2.40;;
71975;SDS011;68326;52.124;5.424;2023-08-21T07:40:10;5.78;;;2.72;;
71975;SDS011;68326;52.124;5.424;2023-08-21T07:42:37;5.20;;;2.28;;
71975;SDS011;68326;52.124;5.424;2023-08-21T07:45:05;8.52;;;2.53;;
71975;SDS011;68326;52.124;5.424;2023-08-21T07:47:32;6.70;;;2.17;;
71975;SDS011;68326;52.124;5.424;2023-08-21T07:50:02;18.98;;;3.80;;
71975;SDS011;68326;52.124;5.424;2023-08-21T07:52:29;10.98;;;2.35;;
71975;SDS011;68326;52.124;5.424;2023-08-21T07:54:55;14.18;;;2.47;;
71975;SDS011;68326;52.124;5.424;2023-08-21T07:57:22;10.15;;;2.47;;
71975;SDS011;68326;52.124;5.424;2023-08-21T07:59:48;41.00;;;4.73;;
71975;SDS011;68326;52.124;5.424;2023-08-21T08:02:15;5.75;;;1.60;;
71975;SDS011;68326;52.124;5.424;2023-08-21T08:04:41;10.13;;;1.95;;
71975;SDS011;68326;52.124;5.424;2023-08-21T08:07:09;6.95;;;1.85;;
71975;SDS011;68326;52.124;5.424;2023-08-21T08:09:36;7.47;;;1.17;;
71975;SDS011;68326;52.124;5.424;2023-08-21T08:12:02;33.77;;;4.73;;
71975;SDS011;68326;52.124;5.424;2023-08-21T08:14:31;7.00;;;1.83;;
71975;SDS011;68326;52.124;5.424;2023-08-21T08:16:58;4.82;;;1.10;;
71975;SDS011;68326;52.124;5.424;2023-08-21T08:19:24;8.18;;;1.50;;
71975;SDS011;68326;52.124;5.424;2023-08-21T08:21:51;9.18;;;0.80;;
71975;SDS011;68326;52.124;5.424;2023-08-21T08:24:18;5.70;;;1.67;;
71975;SDS011;68326;52.124;5.424;2023-08-21T08:26:44;4.25;;;1.00;;
71975;SDS011;68326;52.124;5.424;2023-08-21T08:29:12;7.63;;;1.67;;
71975;SDS011;68326;52.124;5.424;2023-08-21T08:31:38;5.60;;;0.98;;
71975;SDS011;68326;52.124;5.424;2023-08-21T08:34:05;5.25;;;0.90;;
71975;SDS011;68326;52.124;5.424;2023-08-21T08:36:31;8.47;;;0.97;;
71975;SDS011;68326;52.124;5.424;2023-08-21T08:38:58;2.95;;;0.80;;
71975;SDS011;68326;52.124;5.424;2023-08-21T08:41:30;6.25;;;0.80;;
71975;SDS011;68326;52.124;5.424;2023-08-21T08:44:21;4.95;;;1.02;;
71975;SDS011;68326;52.124;5.424;2023-08-21T08:46:51;4.82;;;0.70;;
71975;SDS011;68326;52.124;5.424;2023-08-21T08:49:18;2.27;;;0.47;;
71975;SDS011;68326;52.124;5.424;2023-08-21T08:51:45;3.78;;;0.70;;
71975;SDS011;68326;52.124;5.424;2023-08-21T08:54:14;3.15;;;0.90;;
71975;SDS011;68326;52.124;5.424;2023-08-21T08:56:43;2.88;;;0.50;;
71975;SDS011;68326;52.124;5.424;2023-08-21T08:59:12;2.92;;;0.90;;
71975;SDS011;68326;52.124;5.424;2023-08-21T09:01:41;2.47;;;0.70;;
71975;SDS011;68326;52.124;5.424;2023-08-21T09:04:08;5.65;;;0.80;;
71975;SDS011;68326;52.124;5.424;2023-08-21T09:06:35;9.45;;;1.20;;
71975;SDS011;68326;52.124;5.424;2023-08-21T09:09:02;3.88;;;0.60;;
71975;SDS011;68326;52.124;5.424;2023-08-21T09:11:28;3.75;;;1.23;;
71975;SDS011;68326;52.124;5.424;2023-08-21T09:13:55;3.33;;;0.70;;
71975;SDS011;68326;52.124;5.424;2023-08-21T09:16:24;4.85;;;1.20;;
71975;SDS011;68326;52.124;5.424;2023-08-21T09:18:53;5.07;;;1.08;;
71975;SDS011;68326;52.124;5.424;2023-08-21T09:21:23;4.35;;;0.80;;
71975;SDS011;68326;52.124;5.424;2023-08-21T09:23:58;2.53;;;0.70;;
71975;SDS011;68326;52.124;5.424;2023-08-21T09:26:26;4.57;;;0.77;;
71975;SDS011;68326;52.124;5.424;2023-08-21T09:28:53;4.38;;;0.60;;
71975;SDS011;68326;52.124;5.424;2023-08-21T09:31:30;3.97;;;0.60;;
71975;SDS011;68326;52.124;5.424;2023-08-21T09:33:58;4.18;;;1.25;;
71975;SDS011;68326;52.124;5.424;2023-08-21T09:36:27;5.13;;;0.80;;
71975;SDS011;68326;52.124;5.424;2023-08-21T09:38:54;3.80;;;0.80;;
71975;SDS011;68326;52.124;5.424;2023-08-21T09:41:21;2.88;;;0.43;;
71975;SDS011;68326;52.124;5.424;2023-08-21T09:43:48;3.75;;;0.60;;
71975;SDS011;68326;52.124;5.424;2023-08-21T09:46:16;2.58;;;0.63;;
71975;SDS011;68326;52.124;5.424;2023-08-21T09:48:44;2.97;;;0.50;;
71975;SDS011;68326;52.124;5.424;2023-08-21T09:51:14;2.70;;;0.50;;
71975;SDS011;68326;52.124;5.424;2023-08-21T09:53:40;4.22;;;0.68;;
71975;SDS011;68326;52.124;5.424;2023-08-21T09:56:07;4.93;;;0.50;;
71975;SDS011;68326;52.124;5.424;2023-08-21T09:58:35;4.60;;;0.88;;
71975;SDS011;68326;52.124;5.424;2023-08-21T10:01:06;4.78;;;0.63;;
71975;SDS011;68326;52.124;5.424;2023-08-21T10:03:38;2.80;;;0.70;;
71975;SDS011;68326;52.124;5.424;2023-08-21T10:06:08;3.88;;;0.68;;
71975;SDS011;68326;52.124;5.424;2023-08-21T10:08:36;5.00;;;0.70;;
71975;SDS011;68326;52.124;5.424;2023-08-21T10:11:06;3.78;;;0.70;;
71975;SDS011;68326;52.124;5.424;2023-08-21T10:13:35;3.83;;;0.77;;
71975;SDS011;68326;52.124;5.424;2023-08-21T10:16:04;4.97;;;1.10;;
71975;SDS011;68326;52.124;5.424;2023-08-21T10:18:33;2.28;;;0.90;;
71975;SDS011;68326;52.124;5.424;2023-08-21T10:21:22;3.33;;;0.68;;
71975;SDS011;68326;52.124;5.424;2023-08-21T10:23:54;3.63;;;0.70;;
71975;SDS011;68326;52.124;5.424;2023-08-21T10:26:22;3.72;;;1.20;;
71975;SDS011;68326;52.124;5.424;2023-08-21T10:31:28;4.32;;;0.90;;
71975;SDS011;68326;52.124;5.424;2023-08-21T10:33:55;3.42;;;0.80;;
71975;SDS011;68326;52.124;5.424;2023-08-21T10:37:02;2.28;;;0.68;;
71975;SDS011;68326;52.124;5.424;2023-08-21T10:39:52;3.97;;;0.80;;
71975;SDS011;68326;52.124;5.424;2023-08-21T10:42:36;5.10;;;0.60;;
71975;SDS011;68326;52.124;5.424;2023-08-21T10:45:11;3.42;;;0.52;;
71975;SDS011;68326;52.124;5.424;2023-08-21T10:47:38;2.88;;;0.60;;
71975;SDS011;68326;52.124;5.424;2023-08-21T10:50:06;4.40;;;0.50;;
71975;SDS011;68326;52.124;5.424;2023-08-21T10:52:35;1.38;;;0.47;;
71975;SDS011;68326;52.124;5.424;2023-08-21T10:55:04;4.27;;;0.63;;
71975;SDS011;68326;52.124;5.424;2023-08-21T10:57:32;6.25;;;0.90;;
71975;SDS011;68326;52.124;5.424;2023-08-21T11:00:00;4.70;;;0.73;;
71975;SDS011;68326;52.124;5.424;2023-08-21T11:02:35;4.65;;;0.65;;
71975;SDS011;68326;52.124;5.424;2023-08-21T11:05:04;1.90;;;0.77;;
71975;SDS011;68326;52.124;5.424;2023-08-21T11:07:38;2.43;;;0.50;;
71975;SDS011;68326;52.124;5.424;2023-08-21T11:10:07;1.92;;;0.30;;
71975;SDS011;68326;52.124;5.424;2023-08-21T11:12:37;3.35;;;0.50;;
71975;SDS011;68326;52.124;5.424;2023-08-21T11:15:05;4.10;;;2.30;;
71975;SDS011;68326;52.124;5.424;2023-08-21T11:17:32;1.55;;;0.60;;
71975;SDS011;68326;52.124;5.424;2023-08-21T11:20:00;3.33;;;0.60;;
71975;SDS011;68326;52.124;5.424;2023-08-21T11:22:28;1.73;;;0.30;;
71975;SDS011;68326;52.124;5.424;2023-08-21T11:24:55;1.17;;;0.32;;
71975;SDS011;68326;52.124;5.424;2023-08-21T11:27:22;3.30;;;0.50;;
71975;SDS011;68326;52.124;5.424;2023-08-21T11:29:59;3.50;;;0.75;;
71975;SDS011;68326;52.124;5.424;2023-08-21T11:32:26;2.70;;;0.40;;
71975;SDS011;68326;52.124;5.424;2023-08-21T11:34:54;2.65;;;0.43;;
71975;SDS011;68326;52.124;5.424;2023-08-21T11:37:22;1.63;;;0.38;;
71975;SDS011;68326;52.124;5.424;2023-08-21T11:42:20;5.55;;;0.60;;
71975;SDS011;68326;52.124;5.424;2023-08-21T11:44:54;2.13;;;0.50;;
71975;SDS011;68326;52.124;5.424;2023-08-21T11:47:22;1.73;;;0.40;;
71975;SDS011;68326;52.124;5.424;2023-08-21T11:49:49;1.20;;;0.50;;
71975;SDS011;68326;52.124;5.424;2023-08-21T11:52:17;2.42;;;0.63;;
71975;SDS011;68326;52.124;5.424;2023-08-21T11:54:49;2.15;;;0.40;;
71975;SDS011;68326;52.124;5.424;2023-08-21T11:57:17;1.70;;;0.40;;
71975;SDS011;68326;52.124;5.424;2023-08-21T11:59:49;1.48;;;0.50;;
71975;SDS011;68326;52.124;5.424;2023-08-21T12:02:23;1.35;;;0.43;;
71975;SDS011;68326;52.124;5.424;2023-08-21T12:04:55;2.65;;;0.50;;
71975;SDS011;68326;52.124;5.424;2023-08-21T12:07:29;3.13;;;0.50;;
71975;SDS011;68326;52.124;5.424;2023-08-21T12:09:55;1.80;;;0.50;;
71975;SDS011;68326;52.124;5.424;2023-08-21T12:12:22;1.60;;;0.60;;
71975;SDS011;68326;52.124;5.424;2023-08-21T12:14:49;2.70;;;0.68;;
71975;SDS011;68326;52.124;5.424;2023-08-21T12:17:16;1.85;;;0.50;;
71975;SDS011;68326;52.124;5.424;2023-08-21T12:19:43;1.38;;;0.60;;
71975;SDS011;68326;52.124;5.424;2023-08-21T12:22:09;1.93;;;0.57;;
71975;SDS011;68326;52.124;5.424;2023-08-21T12:24:36;2.25;;;0.70;;
71975;SDS011;68326;52.124;5.424;2023-08-21T12:27:04;4.25;;;1.33;;
71975;SDS011;68326;52.124;5.424;2023-08-21T12:29:32;2.42;;;0.50;;
71975;SDS011;68326;52.124;5.424;2023-08-21T12:31:59;1.45;;;0.77;;
71975;SDS011;68326;52.124;5.424;2023-08-21T12:34:25;2.70;;;0.77;;
71975;SDS011;68326;52.124;5.424;2023-08-21T12:36:52;2.20;;;0.70;;
71975;SDS011;68326;52.124;5.424;2023-08-21T12:39:19;2.10;;;0.60;;
71975;SDS011;68326;52.124;5.424;2023-08-21T12:41:45;1.25;;;0.57;;
71975;SDS011;68326;52.124;5.424;2023-08-21T12:44:12;1.63;;;0.52;;
71975;SDS011;68326;52.124;5.424;2023-08-21T12:46:39;1.43;;;0.60;;
71975;SDS011;68326;52.124;5.424;2023-08-21T12:49:05;4.18;;;1.25;;
71975;SDS011;68326;52.124;5.424;2023-08-21T12:51:32;2.05;;;1.10;;
71975;SDS011;68326;52.124;5.424;2023-08-21T12:53:59;2.97;;;0.98;;
71975;SDS011;68326;52.124;5.424;2023-08-21T12:56:25;2.92;;;0.80;;
71975;SDS011;68326;52.124;5.424;2023-08-21T12:58:52;2.20;;;1.10;;
71975;SDS011;68326;52.124;5.424;2023-08-21T13:01:18;1.17;;;0.60;;
71975;SDS011;68326;52.124;5.424;2023-08-21T13:03:46;2.13;;;0.90;;
71975;SDS011;68326;52.124;5.424;2023-08-21T13:06:13;2.90;;;0.70;;
71975;SDS011;68326;52.124;5.424;2023-08-21T13:08:40;5.60;;;1.83;;
71975;SDS011;68326;52.124;5.424;2023-08-21T13:11:07;4.00;;;1.07;;
71975;SDS011;68326;52.124;5.424;2023-08-21T13:13:34;2.80;;;1.00;;
71975;SDS011;68326;52.124;5.424;2023-08-21T13:16:00;3.03;;;1.90;;
71975;SDS011;68326;52.124;5.424;2023-08-21T13:18:27;2.78;;;1.20;;
71975;SDS011;68326;52.124;5.424;2023-08-21T13:20:54;2.97;;;1.20;;
71975;SDS011;68326;52.124;5.424;2023-08-21T13:23:20;2.33;;;1.07;;
71975;SDS011;68326;52.124;5.424;2023-08-21T13:25:47;3.13;;;1.35;;
71975;SDS011;68326;52.124;5.424;2023-08-21T13:28:13;2.42;;;1.17;;
71975;SDS011;68326;52.124;5.424;2023-08-21T13:30:40;2.90;;;1.30;;
71975;SDS011;68326;52.124;5.424;2023-08-21T13:33:06;5.72;;;1.65;;
71975;SDS011;68326;52.124;5.424;2023-08-21T13:35:33;2.07;;;1.27;;
71975;SDS011;68326;52.124;5.424;2023-08-21T13:38:00;2.10;;;1.20;;
71975;SDS011;68326;52.124;5.424;2023-08-21T13:40:26;3.67;;;1.15;;
71975;SDS011;68326;52.124;5.424;2023-08-21T13:42:53;2.90;;;0.60;;
71975;SDS011;68326;52.124;5.424;2023-08-21T13:45:20;3.97;;;0.82;;
71975;SDS011;68326;52.124;5.424;2023-08-21T13:47:47;2.40;;;0.53;;
71975;SDS011;68326;52.124;5.424;2023-08-21T13:50:16;2.58;;;0.60;;
71975;SDS011;68326;52.124;5.424;2023-08-21T13:52:45;3.35;;;0.88;;
71975;SDS011;68326;52.124;5.424;2023-08-21T13:55:12;2.13;;;0.70;;
71975;SDS011;68326;52.124;5.424;2023-08-21T13:57:40;2.58;;;0.60;;
71975;SDS011;68326;52.124;5.424;2023-08-21T14:00:08;2.03;;;0.50;;
71975;SDS011;68326;52.124;5.424;2023-08-21T14:02:39;2.58;;;0.88;;
71975;SDS011;68326;52.124;5.424;2023-08-21T14:05:07;3.15;;;0.80;;
71975;SDS011;68326;52.124;5.424;2023-08-21T14:07:34;3.25;;;0.80;;
71975;SDS011;68326;52.124;5.424;2023-08-21T14:10:02;1.63;;;0.73;;
71975;SDS011;68326;52.124;5.424;2023-08-21T14:12:33;2.27;;;0.60;;
71975;SDS011;68326;52.124;5.424;2023-08-21T14:15:00;3.55;;;0.93;;
71975;SDS011;68326;52.124;5.424;2023-08-21T14:17:27;2.25;;;0.88;;
71975;SDS011;68326;52.124;5.424;2023-08-21T14:19:54;1.42;;;0.50;;
71975;SDS011;68326;52.124;5.424;2023-08-21T14:22:21;2.22;;;0.68;;
71975;SDS011;68326;52.124;5.424;2023-08-21T14:24:48;1.17;;;0.50;;
71975;SDS011;68326;52.124;5.424;2023-08-21T14:27:14;1.88;;;0.63;;
71975;SDS011;68326;52.124;5.424;2023-08-21T14:29:44;1.98;;;0.77;;
71975;SDS011;68326;52.124;5.424;2023-08-21T14:32:11;1.73;;;0.75;;
71975;SDS011;68326;52.124;5.424;2023-08-21T14:34:39;3.45;;;0.80;;
71975;SDS011;68326;52.124;5.424;2023-08-21T14:37:05;2.43;;;0.53;;
71975;SDS011;68326;52.124;5.424;2023-08-21T14:39:32;2.40;;;0.55;;
71975;SDS011;68326;52.124;5.424;2023-08-21T14:41:59;3.38;;;0.75;;
71975;SDS011;68326;52.124;5.424;2023-08-21T14:44:25;2.13;;;0.75;;
71975;SDS011;68326;52.124;5.424;2023-08-21T14:46:52;1.52;;;0.65;;
71975;SDS011;68326;52.124;5.424;2023-08-21T14:49:24;1.47;;;0.50;;
71975;SDS011;68326;52.124;5.424;2023-08-21T14:51:50;3.05;;;0.60;;
71975;SDS011;68326;52.124;5.424;2023-08-21T14:54:18;2.67;;;0.60;;
71975;SDS011;68326;52.124;5.424;2023-08-21T14:56:44;2.30;;;0.45;;
71975;SDS011;68326;52.124;5.424;2023-08-21T14:59:11;3.63;;;0.80;;
71975;SDS011;68326;52.124;5.424;2023-08-21T15:01:38;1.83;;;0.70;;
71975;SDS011;68326;52.124;5.424;2023-08-21T15:04:05;5.43;;;1.05;;